createdAt,value
2016-11-28T04:01:04.820Z,83.2
2016-11-28T04:01:31.987Z,83.11
2016-11-28T04:01:57.647Z,83.01
2016-11-28T04:02:23.248Z,83.3
2016-11-28T04:02:48.804Z,82.82
2016-11-28T04:03:15.110Z,82.92
2016-11-28T04:03:40.595Z,82.92
2016-11-28T04:04:06.139Z,82.82
2016-11-28T04:04:31.857Z,82.82
2016-11-28T04:04:57.408Z,82.63
2016-11-28T04:05:22.959Z,82.82
2016-11-28T04:05:50.024Z,83.01
2016-11-28T04:06:15.609Z,83.01
2016-11-28T04:06:41.193Z,83.2
2016-11-28T04:07:06.697Z,83.3
2016-11-28T04:07:32.364Z,83.3
2016-11-28T04:07:57.911Z,83.01
2016-11-28T04:08:23.457Z,83.11
2016-11-28T04:08:49.028Z,83.2
2016-11-28T04:09:14.589Z,83.3
2016-11-28T04:09:40.145Z,82.63
2016-11-28T04:10:05.685Z,83.11
2016-11-28T04:10:31.268Z,83.3
2016-11-28T04:10:56.823Z,83.2
2016-11-28T04:11:22.367Z,83.3
2016-11-28T04:11:47.942Z,83.11
2016-11-28T04:12:13.470Z,82.73
2016-11-28T04:12:39.132Z,83.11
2016-11-28T04:13:04.690Z,83.2
2016-11-28T04:13:30.348Z,82.82
2016-11-28T04:13:55.948Z,82.82
2016-11-28T04:14:21.517Z,83.11
2016-11-28T04:14:47.060Z,83.3
2016-11-28T04:15:12.612Z,83.11
2016-11-28T04:15:38.174Z,83.11
2016-11-28T04:16:03.740Z,83.11
2016-11-28T04:16:29.309Z,83.3
2016-11-28T04:16:54.860Z,83.39
2016-11-28T04:17:20.481Z,83.2
2016-11-28T04:17:46.031Z,83.3
2016-11-28T04:18:11.868Z,83.2
2016-11-28T04:18:37.737Z,83.11
2016-11-28T04:19:03.281Z,83.78
2016-11-28T04:19:28.820Z,83.39
2016-11-28T04:19:54.370Z,83.68
2016-11-28T04:20:19.910Z,83.68
2016-11-28T04:20:45.462Z,83.2
2016-11-28T04:21:11.012Z,83.2
2016-11-28T04:21:36.563Z,83.3
2016-11-28T04:22:02.113Z,83.2
2016-11-28T04:22:27.662Z,83.3
2016-11-28T04:22:53.225Z,83.2
2016-11-28T04:23:18.785Z,83.3
2016-11-28T04:23:44.327Z,83.11
2016-11-28T04:24:09.831Z,83.49
2016-11-28T04:24:35.373Z,83.68
2016-11-28T04:25:00.889Z,83.59
2016-11-28T04:25:26.441Z,83.39
2016-11-28T04:25:51.976Z,83.3
2016-11-28T04:26:17.647Z,83.59
2016-11-28T04:26:43.191Z,83.59
2016-11-28T04:27:08.717Z,83.59
2016-11-28T04:27:34.239Z,83.3
2016-11-28T04:27:59.756Z,83.39
2016-11-28T04:28:25.384Z,83.49
2016-11-28T04:28:50.986Z,83.59
2016-11-28T04:29:16.524Z,83.39
2016-11-28T04:29:42.020Z,83.11
2016-11-28T04:30:07.540Z,83.01
2016-11-28T04:30:33.074Z,83.2
2016-11-28T04:30:58.624Z,83.49
2016-11-28T04:31:24.126Z,83.3
2016-11-28T04:31:49.672Z,83.11
2016-11-28T04:32:15.246Z,83.01
2016-11-28T04:32:40.767Z,83.3
2016-11-28T04:33:06.295Z,83.68
2016-11-28T04:33:31.810Z,83.2
2016-11-28T04:33:57.400Z,83.59
2016-11-28T04:34:22.943Z,83.49
2016-11-28T04:34:48.445Z,83.3
2016-11-28T04:35:13.976Z,83.2
2016-11-28T04:35:39.587Z,83.68
2016-11-28T04:36:05.116Z,83.49
2016-11-28T04:36:30.687Z,83.3
2016-11-28T04:36:56.199Z,83.59
2016-11-28T04:37:21.722Z,83.49
2016-11-28T04:37:47.253Z,83.39
2016-11-28T04:38:12.790Z,83.49
2016-11-28T04:38:38.316Z,83.68
2016-11-28T04:39:03.866Z,83.2
2016-11-28T04:39:29.535Z,83.2
2016-11-28T04:39:55.079Z,83.2
2016-11-28T04:40:20.624Z,83.39
2016-11-28T04:40:46.165Z,83.11
2016-11-28T04:41:11.698Z,83.11
2016-11-28T04:41:37.205Z,83.2
2016-11-28T04:42:02.745Z,83.11
2016-11-28T04:42:28.250Z,83.68
2016-11-28T04:42:53.943Z,83.11
2016-11-28T04:43:19.463Z,83.39
2016-11-28T04:43:45.001Z,83.3
2016-11-28T04:44:10.525Z,83.3
2016-11-28T04:44:36.106Z,83.3
2016-11-28T04:45:01.659Z,83.39
2016-11-28T04:45:27.251Z,83.2
2016-11-28T04:45:52.799Z,83.2
2016-11-28T04:46:18.374Z,83.3
2016-11-28T04:46:43.903Z,83.68
2016-11-28T04:47:09.451Z,83.39
2016-11-28T04:47:34.981Z,83.39
2016-11-28T04:48:00.558Z,83.49
2016-11-28T04:48:26.118Z,83.39
2016-11-28T04:48:51.682Z,83.49
2016-11-28T04:49:17.209Z,83.2
2016-11-28T04:49:42.764Z,83.2
2016-11-28T04:50:08.338Z,83.49
2016-11-28T04:50:42.704Z,83.2
2016-11-28T04:51:08.272Z,83.59
2016-11-28T04:51:33.969Z,83.68
2016-11-28T04:52:03.931Z,83.49
2016-11-28T04:52:29.469Z,83.01
2016-11-28T04:52:58.643Z,83.01
2016-11-28T04:53:24.200Z,83.01
2016-11-28T04:53:50.675Z,83.01
2016-11-28T04:54:16.249Z,83.01
2016-11-28T04:54:43.827Z,83.11
2016-11-28T04:55:10.294Z,83.11
2016-11-28T04:55:37.433Z,83.59
2016-11-28T04:56:02.990Z,83.01
2016-11-28T04:56:37.035Z,82.92
2016-11-28T09:54:15.436Z,75.23
2016-11-28T09:55:18.433Z,74.66
2016-11-28T09:55:51.930Z,74.66
2016-11-28T09:56:25.423Z,74.6
2016-11-28T09:56:58.836Z,74.79
2016-11-28T09:58:08.350Z,74.22
2016-11-28T09:59:31.346Z,74.51
2016-11-28T10:00:04.731Z,74.22
2016-11-28T10:00:38.482Z,73.74
2016-11-28T10:01:54.600Z,74.02
2016-11-28T10:02:28.124Z,73.83
2016-11-28T10:03:01.436Z,73.93
2016-11-28T10:03:34.968Z,73.65
2016-11-28T10:04:08.092Z,73.45
2016-11-28T10:04:41.876Z,73.16
2016-11-28T10:05:15.316Z,73.45
2016-11-28T10:06:24.915Z,73.16
2016-11-28T10:06:58.567Z,72.88
2016-11-28T10:07:31.630Z,73.16
2016-11-28T10:08:51.341Z,72.97
2016-11-28T10:10:00.824Z,72.88
2016-11-28T10:12:13.210Z,72.91
2016-11-28T10:13:22.815Z,72.81
2016-11-28T10:14:39.034Z,72.33
2016-11-28T10:15:12.476Z,72.14
2016-11-28T10:15:45.805Z,72.63
2016-11-28T10:16:54.628Z,72.14
2016-11-28T10:18:41.343Z,71.86
2016-11-28T10:20:47.157Z,71.47
2016-11-28T10:21:20.628Z,71.47
2016-11-28T10:22:23.242Z,71.09
2016-11-28T10:22:56.621Z,71.03
2016-11-28T10:24:19.524Z,71.12
2016-11-28T10:24:53.197Z,71.12
2016-11-28T10:25:25.859Z,71.41
2016-11-28T10:26:42.114Z,71.31
2016-11-28T10:27:15.527Z,70.84
2016-11-28T10:28:31.766Z,70.93
2016-11-28T10:29:04.778Z,70.64
2016-11-28T10:29:38.749Z,70.55
2016-11-28T10:31:50.696Z,70.36
2016-11-28T10:32:23.717Z,70.49
2016-11-28T10:32:55.383Z,70.45
2016-11-28T10:33:25.899Z,70.36
2016-11-28T10:33:59.248Z,70.39
2016-11-28T10:34:32.812Z,70.2
2016-11-28T10:35:05.653Z,69.91
2016-11-28T10:36:02.379Z,69.62
2016-11-28T10:36:35.618Z,69.91
2016-11-28T10:37:08.731Z,69.91
2016-11-28T10:38:18.164Z,70.1
2016-11-28T10:39:21.393Z,69.72
2016-11-28T10:39:54.323Z,69.43
2016-11-28T10:42:43.129Z,69.72
2016-11-28T10:43:16.403Z,69.72
2016-11-28T10:44:19.149Z,69.53
2016-11-28T10:45:27.675Z,69.66
2016-11-28T10:46:36.250Z,69.53
2016-11-28T10:47:08.188Z,69.08
2016-11-28T10:48:54.745Z,69.18
2016-11-28T10:49:26.898Z,68.41
2016-11-28T10:50:00.094Z,68.7
2016-11-28T10:50:32.522Z,68.89
2016-11-28T10:51:00.119Z,68.98
2016-11-28T10:51:56.632Z,68.41
2016-11-28T10:52:53.216Z,68.41
2016-11-28T10:53:56.449Z,68.21
2016-11-28T10:55:04.155Z,68.12
2016-11-28T10:56:19.485Z,68.15
2016-11-28T10:57:35.043Z,68.06
2016-11-28T10:58:31.939Z,67.77
2016-11-28T10:59:05.502Z,67.68
2016-11-28T11:01:03.513Z,66.81
2016-11-28T11:01:59.891Z,67.1
2016-11-28T11:02:30.137Z,66.91
2016-11-28T11:03:03.187Z,66.91
2016-11-28T11:04:12.301Z,66.71
2016-11-28T11:04:45.778Z,66.91
2016-11-28T11:05:19.272Z,66.42
2016-11-28T11:06:22.234Z,66.61
2016-11-28T11:06:55.609Z,66.42
2016-11-28T11:08:05.141Z,66.52
2016-11-28T11:08:38.468Z,66.42
2016-11-28T11:09:48.059Z,66.33
2016-11-28T11:11:04.090Z,66.07
2016-11-28T11:11:37.601Z,66.17
2016-11-28T11:12:10.923Z,66.17
2016-11-28T11:13:33.718Z,66.36
2016-11-28T11:14:06.634Z,66.33
2016-11-28T11:16:42.055Z,66.52
2016-11-28T11:17:51.836Z,66.33
2016-11-28T11:19:12.922Z,66.33
2016-11-28T11:20:09.429Z,66.14
2016-11-28T11:20:41.578Z,65.94
2016-11-28T11:22:27.251Z,66.33
2016-11-28T11:23:23.695Z,65.94
2016-11-28T11:23:56.985Z,66.33
2016-11-28T11:24:30.589Z,65.84
2016-11-28T11:25:03.932Z,66.42
2016-11-28T11:25:37.486Z,66.23
2016-11-28T11:26:46.968Z,66.42
2016-11-28T11:27:49.800Z,66.33
2016-11-28T11:28:58.564Z,65.84
2016-11-28T11:29:55.579Z,65.84
2016-11-28T11:31:18.500Z,66.23
2016-11-28T11:32:28.116Z,66.23
2016-11-28T11:33:01.634Z,66.23
2016-11-28T11:33:35.073Z,66.61
2016-11-28T11:34:08.448Z,66.33
2016-11-28T11:34:41.786Z,66.52
